sensor_id;sensor_type;location;lat;lon;timestamp;P1;durP1;ratioP1;P2;durP2;ratioP2
17177;SDS011;8704;52.006;4.374;2023-05-07T00:01:34;38.15;;;31.83;;
17177;SDS011;8704;52.006;4.374;2023-05-07T00:04:02;34.58;;;29.58;;
17177;SDS011;8704;52.006;4.374;2023-05-07T00:06:31;33.47;;;27.67;;
17177;SDS011;8704;52.006;4.374;2023-05-07T00:09:01;35.45;;;30.17;;
17177;SDS011;8704;52.006;4.374;2023-05-07T00:11:30;35.75;;;30.10;;
17177;SDS011;8704;52.006;4.374;2023-05-07T00:14:00;29.75;;;26.48;;
17177;SDS011;8704;52.006;4.374;2023-05-07T00:16:28;31.20;;;27.23;;
17177;SDS011;8704;52.006;4.374;2023-05-07T00:18:56;35.40;;;29.27;;
17177;SDS011;8704;52.006;4.374;2023-05-07T00:21:24;34.17;;;28.90;;
17177;SDS011;8704;52.006;4.374;2023-05-07T00:23:53;33.17;;;28.27;;
17177;SDS011;8704;52.006;4.374;2023-05-07T00:26:22;35.35;;;29.20;;
17177;SDS011;8704;52.006;4.374;2023-05-07T00:28:50;31.70;;;28.10;;
17177;SDS011;8704;52.006;4.374;2023-05-07T00:31:18;33.95;;;28.70;;
17177;SDS011;8704;52.006;4.374;2023-05-07T00:33:46;36.78;;;31.08;;
17177;SDS011;8704;52.006;4.374;2023-05-07T00:36:14;35.72;;;29.30;;
17177;SDS011;8704;52.006;4.374;2023-05-07T00:38:42;34.08;;;29.92;;
17177;SDS011;8704;52.006;4.374;2023-05-07T00:41:10;33.03;;;29.33;;
17177;SDS011;8704;52.006;4.374;2023-05-07T00:43:40;37.35;;;32.50;;
17177;SDS011;8704;52.006;4.374;2023-05-07T00:46:08;34.70;;;30.52;;
17177;SDS011;8704;52.006;4.374;2023-05-07T00:48:38;35.63;;;30.77;;
17177;SDS011;8704;52.006;4.374;2023-05-07T00:51:06;36.60;;;30.60;;
17177;SDS011;8704;52.006;4.374;2023-05-07T00:53:34;34.03;;;29.85;;
17177;SDS011;8704;52.006;4.374;2023-05-07T00:56:02;38.15;;;33.25;;
17177;SDS011;8704;52.006;4.374;2023-05-07T00:58:32;37.00;;;31.23;;
17177;SDS011;8704;52.006;4.374;2023-05-07T01:01:02;33.22;;;29.52;;
17177;SDS011;8704;52.006;4.374;2023-05-07T01:03:30;33.58;;;29.90;;
17177;SDS011;8704;52.006;4.374;2023-05-07T01:05:58;35.28;;;30.05;;
17177;SDS011;8704;52.006;4.374;2023-05-07T01:08:28;43.15;;;37.15;;
17177;SDS011;8704;52.006;4.374;2023-05-07T01:10:58;39.17;;;31.95;;
17177;SDS011;8704;52.006;4.374;2023-05-07T01:13:27;36.33;;;31.75;;
17177;SDS011;8704;52.006;4.374;2023-05-07T01:15:56;35.35;;;31.52;;
17177;SDS011;8704;52.006;4.374;2023-05-07T01:18:25;39.63;;;33.38;;
17177;SDS011;8704;52.006;4.374;2023-05-07T01:20:55;40.30;;;33.03;;
17177;SDS011;8704;52.006;4.374;2023-05-07T01:23:26;38.47;;;33.45;;
17177;SDS011;8704;52.006;4.374;2023-05-07T01:25:55;35.90;;;31.05;;
17177;SDS011;8704;52.006;4.374;2023-05-07T01:28:23;39.70;;;33.30;;
17177;SDS011;8704;52.006;4.374;2023-05-07T01:30:53;37.67;;;33.58;;
17177;SDS011;8704;52.006;4.374;2023-05-07T01:33:23;39.65;;;33.75;;
17177;SDS011;8704;52.006;4.374;2023-05-07T01:35:52;36.92;;;31.30;;
17177;SDS011;8704;52.006;4.374;2023-05-07T01:38:21;35.40;;;31.77;;
17177;SDS011;8704;52.006;4.374;2023-05-07T01:40:51;38.47;;;32.10;;
17177;SDS011;8704;52.006;4.374;2023-05-07T01:43:20;38.00;;;32.40;;
17177;SDS011;8704;52.006;4.374;2023-05-07T01:45:48;40.85;;;34.65;;
17177;SDS011;8704;52.006;4.374;2023-05-07T01:48:16;40.00;;;35.13;;
17177;SDS011;8704;52.006;4.374;2023-05-07T01:50:45;38.50;;;34.47;;
17177;SDS011;8704;52.006;4.374;2023-05-07T01:53:14;37.45;;;32.97;;
17177;SDS011;8704;52.006;4.374;2023-05-07T01:55:42;42.13;;;35.35;;
17177;SDS011;8704;52.006;4.374;2023-05-07T01:58:12;40.67;;;35.47;;
17177;SDS011;8704;52.006;4.374;2023-05-07T02:00:40;39.22;;;34.95;;
17177;SDS011;8704;52.006;4.374;2023-05-07T02:03:08;43.08;;;35.03;;
17177;SDS011;8704;52.006;4.374;2023-05-07T02:05:37;40.58;;;35.25;;
17177;SDS011;8704;52.006;4.374;2023-05-07T02:08:05;37.35;;;33.33;;
17177;SDS011;8704;52.006;4.374;2023-05-07T02:10:33;35.08;;;30.92;;
17177;SDS011;8704;52.006;4.374;2023-05-07T02:13:02;35.97;;;30.55;;
17177;SDS011;8704;52.006;4.374;2023-05-07T02:15:31;37.65;;;32.80;;
17177;SDS011;8704;52.006;4.374;2023-05-07T02:18:00;36.22;;;31.40;;
17177;SDS011;8704;52.006;4.374;2023-05-07T02:20:30;32.22;;;27.98;;
17177;SDS011;8704;52.006;4.374;2023-05-07T02:22:58;33.42;;;29.85;;
17177;SDS011;8704;52.006;4.374;2023-05-07T02:25:26;34.40;;;30.67;;
17177;SDS011;8704;52.006;4.374;2023-05-07T02:27:55;32.47;;;29.00;;
17177;SDS011;8704;52.006;4.374;2023-05-07T02:30:24;34.58;;;29.52;;
17177;SDS011;8704;52.006;4.374;2023-05-07T02:32:53;32.13;;;28.65;;
17177;SDS011;8704;52.006;4.374;2023-05-07T02:35:21;36.42;;;32.45;;
17177;SDS011;8704;52.006;4.374;2023-05-07T02:37:51;35.97;;;32.08;;
17177;SDS011;8704;52.006;4.374;2023-05-07T02:40:19;34.67;;;31.05;;
17177;SDS011;8704;52.006;4.374;2023-05-07T02:42:47;37.28;;;33.30;;
17177;SDS011;8704;52.006;4.374;2023-05-07T02:45:15;34.95;;;31.20;;
17177;SDS011;8704;52.006;4.374;2023-05-07T02:47:43;36.97;;;33.22;;
17177;SDS011;8704;52.006;4.374;2023-05-07T02:50:13;36.22;;;31.10;;
17177;SDS011;8704;52.006;4.374;2023-05-07T02:52:41;34.95;;;31.30;;
17177;SDS011;8704;52.006;4.374;2023-05-07T02:55:09;35.03;;;31.33;;
17177;SDS011;8704;52.006;4.374;2023-05-07T02:57:38;36.00;;;32.40;;
17177;SDS011;8704;52.006;4.374;2023-05-07T03:00:12;36.13;;;32.28;;
17177;SDS011;8704;52.006;4.374;2023-05-07T03:02:41;37.88;;;33.83;;
17177;SDS011;8704;52.006;4.374;2023-05-07T03:05:10;33.88;;;30.25;;
17177;SDS011;8704;52.006;4.374;2023-05-07T03:07:40;30.55;;;27.25;;
17177;SDS011;8704;52.006;4.374;2023-05-07T03:10:11;35.97;;;31.40;;
17177;SDS011;8704;52.006;4.374;2023-05-07T03:12:39;34.35;;;30.77;;
17177;SDS011;8704;52.006;4.374;2023-05-07T03:15:08;34.55;;;30.73;;
17177;SDS011;8704;52.006;4.374;2023-05-07T03:17:37;37.80;;;34.10;;
17177;SDS011;8704;52.006;4.374;2023-05-07T03:20:06;37.28;;;32.65;;
17177;SDS011;8704;52.006;4.374;2023-05-07T03:22:36;34.05;;;30.55;;
17177;SDS011;8704;52.006;4.374;2023-05-07T03:25:06;39.47;;;35.55;;
17177;SDS011;8704;52.006;4.374;2023-05-07T03:27:36;35.50;;;31.88;;
17177;SDS011;8704;52.006;4.374;2023-05-07T03:30:04;32.83;;;29.52;;
17177;SDS011;8704;52.006;4.374;2023-05-07T03:32:34;36.30;;;32.70;;
17177;SDS011;8704;52.006;4.374;2023-05-07T03:35:02;38.00;;;34.03;;
17177;SDS011;8704;52.006;4.374;2023-05-07T03:37:31;40.80;;;36.45;;
17177;SDS011;8704;52.006;4.374;2023-05-07T03:39:59;38.67;;;34.55;;
17177;SDS011;8704;52.006;4.374;2023-05-07T03:42:28;37.63;;;33.63;;
17177;SDS011;8704;52.006;4.374;2023-05-07T03:44:56;34.25;;;30.95;;
17177;SDS011;8704;52.006;4.374;2023-05-07T03:47:24;35.15;;;31.50;;
17177;SDS011;8704;52.006;4.374;2023-05-07T03:49:52;33.47;;;29.98;;
17177;SDS011;8704;52.006;4.374;2023-05-07T03:52:21;34.58;;;30.98;;
17177;SDS011;8704;52.006;4.374;2023-05-07T03:54:52;34.28;;;30.88;;
17177;SDS011;8704;52.006;4.374;2023-05-07T03:57:20;34.83;;;31.38;;
17177;SDS011;8704;52.006;4.374;2023-05-07T03:59:49;38.92;;;35.13;;
17177;SDS011;8704;52.006;4.374;2023-05-07T04:02:17;33.13;;;29.80;;
17177;SDS011;8704;52.006;4.374;2023-05-07T04:04:45;35.42;;;32.05;;
17177;SDS011;8704;52.006;4.374;2023-05-07T04:07:16;36.40;;;32.80;;
17177;SDS011;8704;52.006;4.374;2023-05-07T04:09:44;34.65;;;31.15;;
17177;SDS011;8704;52.006;4.374;2023-05-07T04:12:12;32.78;;;29.58;;
17177;SDS011;8704;52.006;4.374;2023-05-07T04:14:40;33.60;;;30.25;;
17177;SDS011;8704;52.006;4.374;2023-05-07T04:17:10;29.83;;;26.90;;
17177;SDS011;8704;52.006;4.374;2023-05-07T04:19:38;31.85;;;28.65;;
17177;SDS011;8704;52.006;4.374;2023-05-07T04:22:06;31.30;;;28.20;;
17177;SDS011;8704;52.006;4.374;2023-05-07T04:24:34;30.77;;;27.55;;
17177;SDS011;8704;52.006;4.374;2023-05-07T04:27:02;32.95;;;27.15;;
17177;SDS011;8704;52.006;4.374;2023-05-07T04:29:30;29.25;;;26.25;;
17177;SDS011;8704;52.006;4.374;2023-05-07T04:31:58;29.63;;;26.77;;
17177;SDS011;8704;52.006;4.374;2023-05-07T04:34:28;31.25;;;28.10;;
17177;SDS011;8704;52.006;4.374;2023-05-07T04:36:57;31.35;;;28.25;;
17177;SDS011;8704;52.006;4.374;2023-05-07T04:39:26;33.67;;;30.45;;
17177;SDS011;8704;52.006;4.374;2023-05-07T04:41:54;30.42;;;27.25;;
17177;SDS011;8704;52.006;4.374;2023-05-07T04:44:22;31.63;;;28.58;;
17177;SDS011;8704;52.006;4.374;2023-05-07T04:46:51;29.98;;;26.83;;
17177;SDS011;8704;52.006;4.374;2023-05-07T04:49:19;27.85;;;25.17;;
17177;SDS011;8704;52.006;4.374;2023-05-07T04:51:48;27.90;;;25.13;;
17177;SDS011;8704;52.006;4.374;2023-05-07T04:54:16;31.10;;;28.02;;
17177;SDS011;8704;52.006;4.374;2023-05-07T04:56:44;30.80;;;27.70;;
17177;SDS011;8704;52.006;4.374;2023-05-07T04:59:12;27.73;;;25.10;;
17177;SDS011;8704;52.006;4.374;2023-05-07T05:01:40;30.52;;;27.55;;
17177;SDS011;8704;52.006;4.374;2023-05-07T05:04:08;27.67;;;24.98;;
17177;SDS011;8704;52.006;4.374;2023-05-07T05:06:37;33.42;;;30.30;;
17177;SDS011;8704;52.006;4.374;2023-05-07T05:09:06;34.60;;;31.38;;
17177;SDS011;8704;52.006;4.374;2023-05-07T05:11:35;28.88;;;26.08;;
17177;SDS011;8704;52.006;4.374;2023-05-07T05:14:03;30.15;;;27.25;;
17177;SDS011;8704;52.006;4.374;2023-05-07T05:16:31;30.08;;;27.17;;
17177;SDS011;8704;52.006;4.374;2023-05-07T05:19:01;29.77;;;26.63;;
17177;SDS011;8704;52.006;4.374;2023-05-07T05:21:29;28.65;;;25.83;;
17177;SDS011;8704;52.006;4.374;2023-05-07T05:23:57;30.33;;;27.25;;
17177;SDS011;8704;52.006;4.374;2023-05-07T05:26:26;27.63;;;25.02;;
17177;SDS011;8704;52.006;4.374;2023-05-07T05:28:54;31.33;;;28.27;;
17177;SDS011;8704;52.006;4.374;2023-05-07T05:31:22;28.05;;;25.25;;
17177;SDS011;8704;52.006;4.374;2023-05-07T05:33:50;29.63;;;26.83;;
17177;SDS011;8704;52.006;4.374;2023-05-07T05:36:18;28.58;;;25.83;;
17177;SDS011;8704;52.006;4.374;2023-05-07T05:38:46;30.48;;;27.50;;
17177;SDS011;8704;52.006;4.374;2023-05-07T05:41:14;27.98;;;25.20;;
17177;SDS011;8704;52.006;4.374;2023-05-07T05:43:43;30.17;;;27.08;;
17177;SDS011;8704;52.006;4.374;2023-05-07T05:46:11;28.88;;;25.98;;
17177;SDS011;8704;52.006;4.374;2023-05-07T05:48:39;28.65;;;25.75;;
17177;SDS011;8704;52.006;4.374;2023-05-07T05:51:07;30.20;;;27.20;;
17177;SDS011;8704;52.006;4.374;2023-05-07T05:53:35;28.30;;;25.40;;
17177;SDS011;8704;52.006;4.374;2023-05-07T05:56:03;32.05;;;28.98;;
17177;SDS011;8704;52.006;4.374;2023-05-07T05:58:32;29.95;;;26.98;;
17177;SDS011;8704;52.006;4.374;2023-05-07T06:01:01;27.38;;;24.88;;
17177;SDS011;8704;52.006;4.374;2023-05-07T06:03:30;28.23;;;25.50;;
17177;SDS011;8704;52.006;4.374;2023-05-07T06:05:58;26.02;;;23.45;;
17177;SDS011;8704;52.006;4.374;2023-05-07T06:08:28;28.13;;;25.40;;
17177;SDS011;8704;52.006;4.374;2023-05-07T06:10:57;27.48;;;24.58;;
17177;SDS011;8704;52.006;4.374;2023-05-07T06:13:25;26.48;;;23.88;;
17177;SDS011;8704;52.006;4.374;2023-05-07T06:15:53;26.00;;;23.30;;
17177;SDS011;8704;52.006;4.374;2023-05-07T06:18:22;24.67;;;22.17;;
17177;SDS011;8704;52.006;4.374;2023-05-07T06:20:51;24.63;;;21.40;;
17177;SDS011;8704;52.006;4.374;2023-05-07T06:23:19;25.98;;;22.67;;
17177;SDS011;8704;52.006;4.374;2023-05-07T06:25:48;24.30;;;21.90;;
17177;SDS011;8704;52.006;4.374;2023-05-07T06:28:17;24.42;;;22.02;;
17177;SDS011;8704;52.006;4.374;2023-05-07T06:30:45;27.02;;;24.50;;
17177;SDS011;8704;52.006;4.374;2023-05-07T06:33:13;29.35;;;26.35;;
17177;SDS011;8704;52.006;4.374;2023-05-07T06:35:42;27.90;;;25.13;;
17177;SDS011;8704;52.006;4.374;2023-05-07T06:38:11;26.13;;;23.48;;
17177;SDS011;8704;52.006;4.374;2023-05-07T06:40:39;24.33;;;22.05;;
17177;SDS011;8704;52.006;4.374;2023-05-07T06:43:07;25.88;;;23.30;;
17177;SDS011;8704;52.006;4.374;2023-05-07T06:45:35;24.80;;;22.38;;
17177;SDS011;8704;52.006;4.374;2023-05-07T06:48:03;23.73;;;21.30;;
17177;SDS011;8704;52.006;4.374;2023-05-07T06:50:31;22.67;;;20.20;;
17177;SDS011;8704;52.006;4.374;2023-05-07T06:53:01;23.48;;;21.13;;
17177;SDS011;8704;52.006;4.374;2023-05-07T06:55:29;23.65;;;21.35;;
17177;SDS011;8704;52.006;4.374;2023-05-07T06:57:58;28.08;;;24.65;;
17177;SDS011;8704;52.006;4.374;2023-05-07T07:00:27;24.73;;;22.38;;
17177;SDS011;8704;52.006;4.374;2023-05-07T07:02:55;24.50;;;21.83;;
17177;SDS011;8704;52.006;4.374;2023-05-07T07:05:23;23.90;;;21.60;;
17177;SDS011;8704;52.006;4.374;2023-05-07T07:07:51;22.88;;;20.77;;
17177;SDS011;8704;52.006;4.374;2023-05-07T07:10:21;23.02;;;20.83;;
17177;SDS011;8704;52.006;4.374;2023-05-07T07:12:49;21.90;;;19.65;;
17177;SDS011;8704;52.006;4.374;2023-05-07T07:15:19;22.63;;;20.33;;
17177;SDS011;8704;52.006;4.374;2023-05-07T07:17:47;23.05;;;20.80;;
17177;SDS011;8704;52.006;4.374;2023-05-07T07:20:16;21.70;;;19.60;;
17177;SDS011;8704;52.006;4.374;2023-05-07T07:22:44;22.92;;;20.63;;
17177;SDS011;8704;52.006;4.374;2023-05-07T07:25:12;22.02;;;19.77;;
17177;SDS011;8704;52.006;4.374;2023-05-07T07:27:41;22.58;;;20.23;;
17177;SDS011;8704;52.006;4.374;2023-05-07T07:30:09;22.75;;;20.55;;
17177;SDS011;8704;52.006;4.374;2023-05-07T07:32:38;22.58;;;20.48;;
17177;SDS011;8704;52.006;4.374;2023-05-07T07:35:06;21.75;;;19.50;;
17177;SDS011;8704;52.006;4.374;2023-05-07T07:37:35;21.05;;;18.98;;
17177;SDS011;8704;52.006;4.374;2023-05-07T07:40:03;20.52;;;18.33;;
17177;SDS011;8704;52.006;4.374;2023-05-07T07:42:31;21.33;;;17.77;;
17177;SDS011;8704;52.006;4.374;2023-05-07T07:45:01;19.48;;;17.48;;
17177;SDS011;8704;52.006;4.374;2023-05-07T07:47:29;22.02;;;18.38;;
17177;SDS011;8704;52.006;4.374;2023-05-07T07:49:57;20.70;;;18.38;;
17177;SDS011;8704;52.006;4.374;2023-05-07T07:52:25;18.90;;;16.90;;
17177;SDS011;8704;52.006;4.374;2023-05-07T07:54:53;19.67;;;17.25;;
17177;SDS011;8704;52.006;4.374;2023-05-07T07:57:21;20.40;;;16.75;;
17177;SDS011;8704;52.006;4.374;2023-05-07T07:59:49;19.13;;;16.98;;
17177;SDS011;8704;52.006;4.374;2023-05-07T08:02:18;19.17;;;17.15;;
17177;SDS011;8704;52.006;4.374;2023-05-07T08:04:46;19.40;;;17.40;;
17177;SDS011;8704;52.006;4.374;2023-05-07T08:07:14;18.45;;;16.65;;
17177;SDS011;8704;52.006;4.374;2023-05-07T08:09:44;19.63;;;17.38;;
17177;SDS011;8704;52.006;4.374;2023-05-07T08:12:12;18.63;;;16.67;;
17177;SDS011;8704;52.006;4.374;2023-05-07T08:14:40;19.77;;;17.67;;
17177;SDS011;8704;52.006;4.374;2023-05-07T08:17:08;18.27;;;16.55;;
17177;SDS011;8704;52.006;4.374;2023-05-07T08:19:38;18.38;;;16.48;;
17177;SDS011;8704;52.006;4.374;2023-05-07T08:22:06;19.40;;;16.38;;
17177;SDS011;8704;52.006;4.374;2023-05-07T08:24:34;17.55;;;15.75;;
17177;SDS011;8704;52.006;4.374;2023-05-07T08:27:02;19.23;;;15.55;;
17177;SDS011;8704;52.006;4.374;2023-05-07T08:29:30;15.98;;;13.85;;
17177;SDS011;8704;52.006;4.374;2023-05-07T08:31:58;16.15;;;14.48;;
17177;SDS011;8704;52.006;4.374;2023-05-07T08:34:26;17.20;;;14.57;;
17177;SDS011;8704;52.006;4.374;2023-05-07T08:36:55;15.85;;;13.48;;
17177;SDS011;8704;52.006;4.374;2023-05-07T08:39:23;15.27;;;13.13;;
17177;SDS011;8704;52.006;4.374;2023-05-07T08:41:52;13.63;;;11.90;;
17177;SDS011;8704;52.006;4.374;2023-05-07T08:44:23;13.87;;;12.47;;
17177;SDS011;8704;52.006;4.374;2023-05-07T08:46:54;13.23;;;10.13;;
17177;SDS011;8704;52.006;4.374;2023-05-07T08:49:23;11.95;;;10.52;;
17177;SDS011;8704;52.006;4.374;2023-05-07T08:51:51;14.43;;;10.85;;
17177;SDS011;8704;52.006;4.374;2023-05-07T08:54:21;15.10;;;11.63;;
17177;SDS011;8704;52.006;4.374;2023-05-07T08:56:49;12.77;;;11.27;;
17177;SDS011;8704;52.006;4.374;2023-05-07T08:59:17;14.15;;;12.43;;
17177;SDS011;8704;52.006;4.374;2023-05-07T09:01:45;14.48;;;12.68;;
17177;SDS011;8704;52.006;4.374;2023-05-07T09:04:13;14.32;;;12.23;;
17177;SDS011;8704;52.006;4.374;2023-05-07T09:06:42;13.40;;;11.23;;
17177;SDS011;8704;52.006;4.374;2023-05-07T09:09:10;13.35;;;10.85;;
17177;SDS011;8704;52.006;4.374;2023-05-07T09:11:45;13.55;;;11.25;;
17177;SDS011;8704;52.006;4.374;2023-05-07T09:14:14;12.98;;;10.35;;
17177;SDS011;8704;52.006;4.374;2023-05-07T09:16:42;11.75;;;8.77;;
17177;SDS011;8704;52.006;4.374;2023-05-07T09:19:10;11.90;;;8.40;;
17177;SDS011;8704;52.006;4.374;2023-05-07T09:21:38;17.73;;;8.02;;
17177;SDS011;8704;52.006;4.374;2023-05-07T09:24:06;13.57;;;9.73;;
17177;SDS011;8704;52.006;4.374;2023-05-07T09:26:34;13.70;;;10.35;;
17177;SDS011;8704;52.006;4.374;2023-05-07T09:29:04;11.02;;;9.52;;
17177;SDS011;8704;52.006;4.374;2023-05-07T09:31:32;14.70;;;11.98;;
17177;SDS011;8704;52.006;4.374;2023-05-07T09:34:04;13.87;;;11.67;;
17177;SDS011;8704;52.006;4.374;2023-05-07T09:36:32;14.57;;;12.27;;
17177;SDS011;8704;52.006;4.374;2023-05-07T09:39:00;12.95;;;10.65;;
17177;SDS011;8704;52.006;4.374;2023-05-07T09:41:28;16.55;;;12.63;;
17177;SDS011;8704;52.006;4.374;2023-05-07T09:43:58;14.27;;;12.38;;
17177;SDS011;8704;52.006;4.374;2023-05-07T09:46:29;13.98;;;11.57;;
17177;SDS011;8704;52.006;4.374;2023-05-07T09:48:58;11.43;;;10.05;;
17177;SDS011;8704;52.006;4.374;2023-05-07T09:51:29;13.57;;;10.85;;
17177;SDS011;8704;52.006;4.374;2023-05-07T09:54:01;11.40;;;9.48;;
17177;SDS011;8704;52.006;4.374;2023-05-07T09:56:30;14.40;;;11.05;;
17177;SDS011;8704;52.006;4.374;2023-05-07T09:58:58;12.02;;;8.90;;
17177;SDS011;8704;52.006;4.374;2023-05-07T10:01:29;12.93;;;8.02;;
17177;SDS011;8704;52.006;4.374;2023-05-07T10:03:58;14.32;;;7.78;;
17177;SDS011;8704;52.006;4.374;2023-05-07T10:06:29;14.10;;;7.60;;
17177;SDS011;8704;52.006;4.374;2023-05-07T10:08:58;12.80;;;8.30;;
17177;SDS011;8704;52.006;4.374;2023-05-07T10:11:27;13.55;;;8.10;;
17177;SDS011;8704;52.006;4.374;2023-05-07T10:13:55;14.25;;;9.73;;
17177;SDS011;8704;52.006;4.374;2023-05-07T10:16:24;14.02;;;9.18;;
17177;SDS011;8704;52.006;4.374;2023-05-07T10:18:55;13.93;;;9.60;;
17177;SDS011;8704;52.006;4.374;2023-05-07T10:21:25;13.40;;;8.93;;
17177;SDS011;8704;52.006;4.374;2023-05-07T10:23:56;13.55;;;7.85;;
17177;SDS011;8704;52.006;4.374;2023-05-07T10:26:27;11.57;;;7.60;;
17177;SDS011;8704;52.006;4.374;2023-05-07T10:28:58;12.80;;;8.38;;
17177;SDS011;8704;52.006;4.374;2023-05-07T10:34:08;12.88;;;8.13;;
17177;SDS011;8704;52.006;4.374;2023-05-07T10:36:39;13.07;;;9.48;;
17177;SDS011;8704;52.006;4.374;2023-05-07T10:39:08;13.68;;;10.50;;
17177;SDS011;8704;52.006;4.374;2023-05-07T10:41:37;14.13;;;10.23;;
17177;SDS011;8704;52.006;4.374;2023-05-07T10:44:05;12.77;;;8.75;;
17177;SDS011;8704;52.006;4.374;2023-05-07T10:46:34;14.13;;;7.85;;
17177;SDS011;8704;52.006;4.374;2023-05-07T10:49:10;11.98;;;6.40;;
17177;SDS011;8704;52.006;4.374;2023-05-07T10:51:42;9.05;;;6.60;;
17177;SDS011;8704;52.006;4.374;2023-05-07T10:54:18;10.95;;;7.05;;
17177;SDS011;8704;52.006;4.374;2023-05-07T10:56:47;13.25;;;7.80;;
17177;SDS011;8704;52.006;4.374;2023-05-07T10:59:32;14.55;;;7.85;;
17177;SDS011;8704;52.006;4.374;2023-05-07T11:02:07;11.93;;;8.07;;
17177;SDS011;8704;52.006;4.374;2023-05-07T11:04:38;11.45;;;8.73;;
17177;SDS011;8704;52.006;4.374;2023-05-07T11:10:04;11.55;;;8.73;;
17177;SDS011;8704;52.006;4.374;2023-05-07T11:12:50;12.80;;;8.90;;
17177;SDS011;8704;52.006;4.374;2023-05-07T11:15:37;15.25;;;9.20;;
17177;SDS011;8704;52.006;4.374;2023-05-07T11:18:14;11.43;;;7.68;;
17177;SDS011;8704;52.006;4.374;2023-05-07T11:20:48;13.73;;;7.60;;
17177;SDS011;8704;52.006;4.374;2023-05-07T11:26:25;11.80;;;8.27;;
17177;SDS011;8704;52.006;4.374;2023-05-07T11:28:54;12.68;;;8.43;;
17177;SDS011;8704;52.006;4.374;2023-05-07T11:31:24;11.77;;;7.15;;
17177;SDS011;8704;52.006;4.374;2023-05-07T11:33:55;10.70;;;6.82;;
17177;SDS011;8704;52.006;4.374;2023-05-07T11:36:25;11.27;;;7.13;;
17177;SDS011;8704;52.006;4.374;2023-05-07T11:38:58;11.95;;;8.00;;
17177;SDS011;8704;52.006;4.374;2023-05-07T11:41:33;10.43;;;7.55;;
17177;SDS011;8704;52.006;4.374;2023-05-07T11:44:02;11.05;;;6.43;;
17177;SDS011;8704;52.006;4.374;2023-05-07T11:46:30;12.85;;;6.55;;
17177;SDS011;8704;52.006;4.374;2023-05-07T11:48:58;10.18;;;5.45;;
17177;SDS011;8704;52.006;4.374;2023-05-07T11:51:29;10.52;;;5.30;;
17177;SDS011;8704;52.006;4.374;2023-05-07T11:53:58;12.10;;;5.55;;
17177;SDS011;8704;52.006;4.374;2023-05-07T11:56:26;10.45;;;5.35;;
17177;SDS011;8704;52.006;4.374;2023-05-07T11:58:54;17.73;;;11.25;;
17177;SDS011;8704;52.006;4.374;2023-05-07T12:01:22;18.58;;;12.98;;
17177;SDS011;8704;52.006;4.374;2023-05-07T12:03:50;20.17;;;13.40;;
17177;SDS011;8704;52.006;4.374;2023-05-07T12:06:18;21.65;;;14.43;;
17177;SDS011;8704;52.006;4.374;2023-05-07T12:08:47;20.13;;;14.27;;
17177;SDS011;8704;52.006;4.374;2023-05-07T12:11:16;18.05;;;13.98;;
17177;SDS011;8704;52.006;4.374;2023-05-07T12:13:49;21.80;;;14.65;;
17177;SDS011;8704;52.006;4.374;2023-05-07T12:16:17;19.73;;;15.07;;
17177;SDS011;8704;52.006;4.374;2023-05-07T12:18:46;22.30;;;14.82;;
17177;SDS011;8704;52.006;4.374;2023-05-07T12:21:14;21.95;;;14.90;;
17177;SDS011;8704;52.006;4.374;2023-05-07T12:23:43;22.13;;;15.07;;
17177;SDS011;8704;52.006;4.374;2023-05-07T12:26:13;30.88;;;18.58;;
17177;SDS011;8704;52.006;4.374;2023-05-07T12:28:41;23.13;;;16.80;;
17177;SDS011;8704;52.006;4.374;2023-05-07T12:31:10;22.30;;;16.10;;
17177;SDS011;8704;52.006;4.374;2023-05-07T12:33:38;26.25;;;18.60;;
17177;SDS011;8704;52.006;4.374;2023-05-07T12:36:07;26.85;;;19.67;;
17177;SDS011;8704;52.006;4.374;2023-05-07T12:38:38;30.27;;;21.55;;
17177;SDS011;8704;52.006;4.374;2023-05-07T12:41:07;23.77;;;18.30;;
17177;SDS011;8704;52.006;4.374;2023-05-07T12:43:38;24.13;;;20.40;;
17177;SDS011;8704;52.006;4.374;2023-05-07T12:46:06;25.67;;;20.67;;
17177;SDS011;8704;52.006;4.374;2023-05-07T12:48:36;24.13;;;20.88;;
17177;SDS011;8704;52.006;4.374;2023-05-07T12:51:05;22.67;;;20.23;;
17177;SDS011;8704;52.006;4.374;2023-05-07T12:53:33;23.80;;;20.70;;
17177;SDS011;8704;52.006;4.374;2023-05-07T12:56:08;27.25;;;22.23;;
17177;SDS011;8704;52.006;4.374;2023-05-07T12:58:36;23.85;;;21.38;;
17177;SDS011;8704;52.006;4.374;2023-05-07T13:01:06;25.13;;;20.58;;
17177;SDS011;8704;52.006;4.374;2023-05-07T13:06:05;24.05;;;21.42;;
17177;SDS011;8704;52.006;4.374;2023-05-07T13:08:36;24.20;;;20.58;;
17177;SDS011;8704;52.006;4.374;2023-05-07T13:11:07;23.67;;;20.77;;
17177;SDS011;8704;52.006;4.374;2023-05-07T13:13:37;26.27;;;19.63;;
17177;SDS011;8704;52.006;4.374;2023-05-07T13:16:08;27.00;;;20.70;;
17177;SDS011;8704;52.006;4.374;2023-05-07T13:18:38;23.83;;;19.83;;
17177;SDS011;8704;52.006;4.374;2023-05-07T13:21:07;24.92;;;20.13;;
17177;SDS011;8704;52.006;4.374;2023-05-07T13:23:36;24.23;;;20.40;;
17177;SDS011;8704;52.006;4.374;2023-05-07T13:26:05;25.58;;;21.85;;
17177;SDS011;8704;52.006;4.374;2023-05-07T13:28:51;26.05;;;21.95;;
17177;SDS011;8704;52.006;4.374;2023-05-07T13:31:20;26.60;;;22.88;;
17177;SDS011;8704;52.006;4.374;2023-05-07T13:33:48;24.77;;;22.10;;
17177;SDS011;8704;52.006;4.374;2023-05-07T13:36:16;24.13;;;21.15;;
17177;SDS011;8704;52.006;4.374;2023-05-07T13:38:44;26.02;;;22.77;;
17177;SDS011;8704;52.006;4.374;2023-05-07T13:41:12;23.75;;;21.17;;
17177;SDS011;8704;52.006;4.374;2023-05-07T13:43:41;27.27;;;23.13;;
17177;SDS011;8704;52.006;4.374;2023-05-07T13:46:08;24.75;;;21.55;;
17177;SDS011;8704;52.006;4.374;2023-05-07T13:48:38;26.75;;;23.40;;
17177;SDS011;8704;52.006;4.374;2023-05-07T13:51:06;25.75;;;23.05;;
17177;SDS011;8704;52.006;4.374;2023-05-07T13:53:34;28.67;;;23.42;;
17177;SDS011;8704;52.006;4.374;2023-05-07T13:56:02;24.98;;;22.05;;
17177;SDS011;8704;52.006;4.374;2023-05-07T13:58:31;26.08;;;23.05;;
17177;SDS011;8704;52.006;4.374;2023-05-07T14:00:59;28.38;;;23.15;;
17177;SDS011;8704;52.006;4.374;2023-05-07T14:03:27;27.83;;;23.83;;
17177;SDS011;8704;52.006;4.374;2023-05-07T14:05:57;24.95;;;22.20;;
17177;SDS011;8704;52.006;4.374;2023-05-07T14:08:26;26.98;;;22.73;;
17177;SDS011;8704;52.006;4.374;2023-05-07T14:10:57;27.95;;;24.42;;
17177;SDS011;8704;52.006;4.374;2023-05-07T14:13:26;26.55;;;23.60;;
17177;SDS011;8704;52.006;4.374;2023-05-07T14:15:54;25.63;;;22.85;;
17177;SDS011;8704;52.006;4.374;2023-05-07T14:18:22;25.40;;;22.33;;
17177;SDS011;8704;52.006;4.374;2023-05-07T14:20:50;30.02;;;24.27;;
17177;SDS011;8704;52.006;4.374;2023-05-07T14:23:19;31.05;;;23.70;;
17177;SDS011;8704;52.006;4.374;2023-05-07T14:25:52;27.33;;;23.90;;
17177;SDS011;8704;52.006;4.374;2023-05-07T14:28:20;28.35;;;23.83;;
17177;SDS011;8704;52.006;4.374;2023-05-07T14:30:48;27.67;;;21.90;;
17177;SDS011;8704;52.006;4.374;2023-05-07T14:33:16;26.02;;;21.38;;
17177;SDS011;8704;52.006;4.374;2023-05-07T14:35:44;25.88;;;20.08;;
17177;SDS011;8704;52.006;4.374;2023-05-07T14:38:15;29.30;;;22.02;;
17177;SDS011;8704;52.006;4.374;2023-05-07T14:40:44;25.45;;;22.02;;
17177;SDS011;8704;52.006;4.374;2023-05-07T14:43:12;27.50;;;21.70;;
17177;SDS011;8704;52.006;4.374;2023-05-07T14:45:40;26.33;;;21.13;;
17177;SDS011;8704;52.006;4.374;2023-05-07T14:48:08;25.23;;;20.23;;
17177;SDS011;8704;52.006;4.374;2023-05-07T14:50:41;24.27;;;21.67;;
17177;SDS011;8704;52.006;4.374;2023-05-07T14:53:09;25.67;;;21.73;;
17177;SDS011;8704;52.006;4.374;2023-05-07T14:55:37;25.33;;;20.48;;
17177;SDS011;8704;52.006;4.374;2023-05-07T14:58:06;24.85;;;20.98;;